This is the latest recevied weather packets stored in our database for station/object W7TJC. If no packets are shown the sender has not sent any weather packets the latest 10 day(s).
| Time | Temp. | Humidity | Pressure | Rain* | Wind** | Luminosity | Snow |
|---|---|---|---|---|---|---|---|
| 1777895238 | 12.78° C | 74% | 1010.7 hPa | 0 mm | - | 0 W/m² | - |
| 1777894936 | 12.78° C | 68% | 1010.6 hPa | 0 mm | - | 0 W/m² | - |
| 1777894633 | 12.78° C | 72% | 1010.6 hPa | 0 mm | - | 0 W/m² | - |
| 1777894329 | 12.78° C | 73% | 1010.8 hPa | 0 mm | - | 0 W/m² | - |
| 1777894027 | 12.78° C | 70% | 1010.7 hPa | 0 mm | - | 0 W/m² | - |
| 1777893723 | 12.78° C | 73% | 1011 hPa | 0 mm | - | 0 W/m² | - |
| 1777893419 | 12.78° C | 71% | 1010.8 hPa | 0 mm | - | 0 W/m² | - |
| 1777893115 | 12.78° C | 70% | 1010.6 hPa | 0 mm | - | 0 W/m² | - |
| 1777892813 | 12.78° C | 73% | 1010.8 hPa | 0 mm | - | 0 W/m² | - |
| 1777892509 | 12.78° C | 69% | 1010.6 hPa | 0 mm | - | 0 W/m² | - |
| 1777892204 | 12.78° C | 71% | 1010.9 hPa | 0 mm | - | 0 W/m² | - |
| 1777891902 | 12.78° C | 68% | 1010.8 hPa | 0 mm | - | 0 W/m² | - |
| 1777891599 | 12.78° C | 72% | 1010.8 hPa | 0 mm | - | 0 W/m² | - |
| 1777891296 | 12.78° C | 74% | 1010.9 hPa | 0 mm | - | 0 W/m² | - |
| 1777890995 | 13.33° C | 73% | 1010.9 hPa | 0 mm | - | 0 W/m² | - |
| 1777890690 | 13.33° C | 70% | 1010.7 hPa | 0 mm | - | 0 W/m² | - |
| 1777890386 | 13.33° C | 72% | 1010.8 hPa | 0 mm | - | 0 W/m² | - |
| 1777890082 | 13.33° C | 69% | 1010.6 hPa | 0 mm | - | 0 W/m² | - |
| 1777889780 | 13.33° C | 70% | 1010.5 hPa | 0 mm | - | 0 W/m² | - |
| 1777889477 | 13.33° C | 70% | 1010.8 hPa | 0 mm | - | 0 W/m² | - |
| 1777889175 | 13.33° C | 68% | 1010.6 hPa | 0 mm | - | 0 W/m² | - |
| 1777888873 | 13.33° C | 71% | 1010.7 hPa | 0 mm | - | 0 W/m² | - |
| 1777888569 | 13.33° C | 67% | 1010.8 hPa | 0 mm | - | 0 W/m² | - |
| 1777888265 | 13.89° C | 66% | 1010.9 hPa | 0 mm | - | 0 W/m² | - |
| 1777887962 | 13.89° C | 66% | 1010.8 hPa | 0 mm | - | 0 W/m² | - |
* Rain latest hour (hover to see other rain measurements)
** Current wind speed in m/s (hover to see current wind gust speed)